sensor_id;sensor_type;location;lat;lon;timestamp;P1;durP1;ratioP1;P2;durP2;ratioP2
75854;SDS011;64502;59.976;30.316;2022-12-22T00:01:07;4.82;;;0.77;;
75854;SDS011;64502;59.976;30.316;2022-12-22T00:03:53;2.35;;;0.68;;
75854;SDS011;64502;59.976;30.316;2022-12-22T00:06:37;6.25;;;1.35;;
75854;SDS011;64502;59.976;30.316;2022-12-22T00:09:21;4.03;;;1.10;;
75854;SDS011;64502;59.976;30.316;2022-12-22T00:12:07;3.22;;;0.95;;
75854;SDS011;64502;59.976;30.316;2022-12-22T00:14:52;3.17;;;0.98;;
75854;SDS011;64502;59.976;30.316;2022-12-22T00:17:36;3.25;;;1.00;;
75854;SDS011;64502;59.976;30.316;2022-12-22T00:20:20;5.25;;;1.02;;
75854;SDS011;64502;59.976;30.316;2022-12-22T00:23:04;3.00;;;1.02;;
75854;SDS011;64502;59.976;30.316;2022-12-22T00:25:48;2.90;;;0.90;;
75854;SDS011;64502;59.976;30.316;2022-12-22T00:28:32;8.27;;;1.45;;
75854;SDS011;64502;59.976;30.316;2022-12-22T00:31:18;4.03;;;1.20;;
75854;SDS011;64502;59.976;30.316;2022-12-22T00:34:03;6.30;;;0.95;;
75854;SDS011;64502;59.976;30.316;2022-12-22T00:36:47;5.25;;;1.40;;
75854;SDS011;64502;59.976;30.316;2022-12-22T00:39:31;7.22;;;1.25;;
75854;SDS011;64502;59.976;30.316;2022-12-22T00:42:15;1.77;;;0.38;;
75854;SDS011;64502;59.976;30.316;2022-12-22T00:44:58;4.20;;;0.90;;
75854;SDS011;64502;59.976;30.316;2022-12-22T00:47:43;3.13;;;0.52;;
75854;SDS011;64502;59.976;30.316;2022-12-22T00:50:32;5.05;;;0.68;;
75854;SDS011;64502;59.976;30.316;2022-12-22T00:53:18;5.97;;;0.93;;
75854;SDS011;64502;59.976;30.316;2022-12-22T00:56:03;4.82;;;0.82;;
75854;SDS011;64502;59.976;30.316;2022-12-22T00:58:48;8.20;;;0.68;;
75854;SDS011;64502;59.976;30.316;2022-12-22T01:01:34;4.05;;;0.60;;
75854;SDS011;64502;59.976;30.316;2022-12-22T01:04:18;2.45;;;0.52;;
75854;SDS011;64502;59.976;30.316;2022-12-22T01:07:03;5.75;;;0.85;;
75854;SDS011;64502;59.976;30.316;2022-12-22T01:09:49;4.22;;;0.47;;
75854;SDS011;64502;59.976;30.316;2022-12-22T01:12:35;5.63;;;0.63;;
75854;SDS011;64502;59.976;30.316;2022-12-22T01:15:21;1.48;;;0.63;;
75854;SDS011;64502;59.976;30.316;2022-12-22T01:18:05;11.00;;;1.50;;
75854;SDS011;64502;59.976;30.316;2022-12-22T01:20:50;6.60;;;1.05;;
75854;SDS011;64502;59.976;30.316;2022-12-22T01:23:35;4.00;;;0.80;;
75854;SDS011;64502;59.976;30.316;2022-12-22T01:26:20;8.85;;;1.00;;
75854;SDS011;64502;59.976;30.316;2022-12-22T01:29:04;7.60;;;0.95;;
75854;SDS011;64502;59.976;30.316;2022-12-22T01:31:48;2.92;;;0.45;;
75854;SDS011;64502;59.976;30.316;2022-12-22T01:34:32;4.20;;;0.57;;
75854;SDS011;64502;59.976;30.316;2022-12-22T01:37:18;6.28;;;0.75;;
75854;SDS011;64502;59.976;30.316;2022-12-22T01:40:02;5.68;;;0.50;;
75854;SDS011;64502;59.976;30.316;2022-12-22T01:42:46;5.72;;;1.10;;
75854;SDS011;64502;59.976;30.316;2022-12-22T01:45:31;5.68;;;0.82;;
75854;SDS011;64502;59.976;30.316;2022-12-22T01:48:18;3.75;;;0.57;;
75854;SDS011;64502;59.976;30.316;2022-12-22T01:51:10;3.45;;;0.90;;
75854;SDS011;64502;59.976;30.316;2022-12-22T01:53:57;4.68;;;1.10;;
75854;SDS011;64502;59.976;30.316;2022-12-22T01:56:42;4.07;;;0.57;;
75854;SDS011;64502;59.976;30.316;2022-12-22T01:59:28;2.47;;;0.60;;
75854;SDS011;64502;59.976;30.316;2022-12-22T02:02:12;3.47;;;0.82;;
75854;SDS011;64502;59.976;30.316;2022-12-22T02:04:58;5.55;;;0.93;;
75854;SDS011;64502;59.976;30.316;2022-12-22T02:29:12;5.88;;;1.10;;
75854;SDS011;64502;59.976;30.316;2022-12-22T02:31:57;4.28;;;0.60;;
75854;SDS011;64502;59.976;30.316;2022-12-22T02:34:41;4.55;;;0.75;;
75854;SDS011;64502;59.976;30.316;2022-12-22T02:40:37;5.38;;;0.90;;
75854;SDS011;64502;59.976;30.316;2022-12-22T02:46:38;3.63;;;0.55;;
75854;SDS011;64502;59.976;30.316;2022-12-22T02:52:59;5.07;;;0.57;;
75854;SDS011;64502;59.976;30.316;2022-12-22T02:55:44;3.35;;;0.50;;
75854;SDS011;64502;59.976;30.316;2022-12-22T02:58:30;3.65;;;0.50;;
75854;SDS011;64502;59.976;30.316;2022-12-22T03:01:15;5.65;;;0.52;;
75854;SDS011;64502;59.976;30.316;2022-12-22T03:03:59;8.07;;;1.70;;
75854;SDS011;64502;59.976;30.316;2022-12-22T03:06:43;4.90;;;0.68;;
75854;SDS011;64502;59.976;30.316;2022-12-22T03:09:27;6.90;;;0.82;;
75854;SDS011;64502;59.976;30.316;2022-12-22T03:12:11;8.10;;;1.20;;
75854;SDS011;64502;59.976;30.316;2022-12-22T03:14:55;4.45;;;1.10;;
75854;SDS011;64502;59.976;30.316;2022-12-22T03:17:39;6.82;;;0.77;;
75854;SDS011;64502;59.976;30.316;2022-12-22T03:20:23;3.80;;;0.75;;
75854;SDS011;64502;59.976;30.316;2022-12-22T03:23:07;3.72;;;0.82;;
75854;SDS011;64502;59.976;30.316;2022-12-22T03:25:51;3.22;;;0.63;;
75854;SDS011;64502;59.976;30.316;2022-12-22T03:28:26;7.32;;;0.77;;
75854;SDS011;64502;59.976;30.316;2022-12-22T03:31:03;7.65;;;1.08;;
75854;SDS011;64502;59.976;30.316;2022-12-22T03:33:30;6.32;;;0.65;;
75854;SDS011;64502;59.976;30.316;2022-12-22T03:35:57;4.28;;;0.73;;
75854;SDS011;64502;59.976;30.316;2022-12-22T03:38:24;7.97;;;1.27;;
75854;SDS011;64502;59.976;30.316;2022-12-22T03:40:50;8.63;;;1.40;;
75854;SDS011;64502;59.976;30.316;2022-12-22T03:43:16;4.82;;;0.70;;
75854;SDS011;64502;59.976;30.316;2022-12-22T03:46:01;7.65;;;1.15;;
75854;SDS011;64502;59.976;30.316;2022-12-22T03:48:45;5.65;;;1.08;;
75854;SDS011;64502;59.976;30.316;2022-12-22T03:51:34;5.20;;;1.00;;
75854;SDS011;64502;59.976;30.316;2022-12-22T03:54:01;7.93;;;1.05;;
75854;SDS011;64502;59.976;30.316;2022-12-22T03:56:26;5.15;;;1.50;;
75854;SDS011;64502;59.976;30.316;2022-12-22T03:58:52;2.60;;;0.60;;
75854;SDS011;64502;59.976;30.316;2022-12-22T04:01:18;5.68;;;1.00;;
75854;SDS011;64502;59.976;30.316;2022-12-22T04:03:43;6.45;;;0.90;;
75854;SDS011;64502;59.976;30.316;2022-12-22T04:06:09;4.40;;;0.77;;
75854;SDS011;64502;59.976;30.316;2022-12-22T04:08:34;7.82;;;2.00;;
75854;SDS011;64502;59.976;30.316;2022-12-22T04:11:00;8.10;;;1.60;;
75854;SDS011;64502;59.976;30.316;2022-12-22T04:13:44;6.07;;;1.02;;
75854;SDS011;64502;59.976;30.316;2022-12-22T04:16:09;4.82;;;0.82;;
75854;SDS011;64502;59.976;30.316;2022-12-22T04:18:35;9.38;;;1.30;;
75854;SDS011;64502;59.976;30.316;2022-12-22T04:21:00;5.28;;;0.95;;
75854;SDS011;64502;59.976;30.316;2022-12-22T04:23:26;7.50;;;2.08;;
75854;SDS011;64502;59.976;30.316;2022-12-22T04:25:51;5.88;;;1.10;;
75854;SDS011;64502;59.976;30.316;2022-12-22T04:28:17;5.35;;;1.25;;
75854;SDS011;64502;59.976;30.316;2022-12-22T04:30:42;6.93;;;1.23;;
75854;SDS011;64502;59.976;30.316;2022-12-22T04:33:08;8.20;;;1.52;;
75854;SDS011;64502;59.976;30.316;2022-12-22T04:35:33;6.45;;;1.27;;
75854;SDS011;64502;59.976;30.316;2022-12-22T04:37:59;13.73;;;1.92;;
75854;SDS011;64502;59.976;30.316;2022-12-22T04:40:24;6.90;;;1.27;;
75854;SDS011;64502;59.976;30.316;2022-12-22T04:42:49;6.47;;;1.05;;
75854;SDS011;64502;59.976;30.316;2022-12-22T04:45:15;8.00;;;1.30;;
75854;SDS011;64502;59.976;30.316;2022-12-22T04:47:40;8.73;;;1.17;;
75854;SDS011;64502;59.976;30.316;2022-12-22T04:50:06;5.63;;;1.15;;
75854;SDS011;64502;59.976;30.316;2022-12-22T04:52:32;8.15;;;1.15;;
75854;SDS011;64502;59.976;30.316;2022-12-22T04:54:57;5.50;;;1.15;;
75854;SDS011;64502;59.976;30.316;2022-12-22T04:57:23;7.53;;;0.98;;
75854;SDS011;64502;59.976;30.316;2022-12-22T04:59:48;9.32;;;1.48;;
75854;SDS011;64502;59.976;30.316;2022-12-22T05:02:14;6.35;;;1.33;;
75854;SDS011;64502;59.976;30.316;2022-12-22T05:04:39;8.60;;;1.95;;
75854;SDS011;64502;59.976;30.316;2022-12-22T05:07:05;8.32;;;1.25;;
75854;SDS011;64502;59.976;30.316;2022-12-22T05:09:31;8.07;;;1.70;;
75854;SDS011;64502;59.976;30.316;2022-12-22T05:11:57;6.20;;;1.80;;
75854;SDS011;64502;59.976;30.316;2022-12-22T05:14:23;4.13;;;1.25;;
75854;SDS011;64502;59.976;30.316;2022-12-22T05:16:49;7.32;;;1.60;;
75854;SDS011;64502;59.976;30.316;2022-12-22T05:19:14;6.47;;;1.42;;
75854;SDS011;64502;59.976;30.316;2022-12-22T05:21:40;5.28;;;1.25;;
75854;SDS011;64502;59.976;30.316;2022-12-22T05:24:05;7.50;;;1.52;;
75854;SDS011;64502;59.976;30.316;2022-12-22T05:26:31;5.38;;;1.45;;
75854;SDS011;64502;59.976;30.316;2022-12-22T05:28:56;9.93;;;1.15;;
75854;SDS011;64502;59.976;30.316;2022-12-22T05:31:22;6.50;;;1.35;;
75854;SDS011;64502;59.976;30.316;2022-12-22T05:33:49;6.47;;;1.50;;
75854;SDS011;64502;59.976;30.316;2022-12-22T05:36:14;6.57;;;1.13;;
75854;SDS011;64502;59.976;30.316;2022-12-22T05:38:40;5.28;;;1.70;;
75854;SDS011;64502;59.976;30.316;2022-12-22T05:41:06;7.10;;;1.73;;
75854;SDS011;64502;59.976;30.316;2022-12-22T05:43:32;3.20;;;1.17;;
75854;SDS011;64502;59.976;30.316;2022-12-22T05:46:02;6.45;;;1.48;;
75854;SDS011;64502;59.976;30.316;2022-12-22T05:48:28;8.85;;;1.60;;
75854;SDS011;64502;59.976;30.316;2022-12-22T05:50:54;11.80;;;2.00;;
75854;SDS011;64502;59.976;30.316;2022-12-22T05:53:19;9.68;;;2.25;;
75854;SDS011;64502;59.976;30.316;2022-12-22T05:55:45;4.88;;;1.50;;
75854;SDS011;64502;59.976;30.316;2022-12-22T05:58:11;5.63;;;1.58;;
75854;SDS011;64502;59.976;30.316;2022-12-22T06:00:36;10.07;;;2.23;;
75854;SDS011;64502;59.976;30.316;2022-12-22T06:03:02;7.47;;;2.13;;
75854;SDS011;64502;59.976;30.316;2022-12-22T06:05:27;5.07;;;1.50;;
75854;SDS011;64502;59.976;30.316;2022-12-22T06:07:53;6.43;;;1.30;;
75854;SDS011;64502;59.976;30.316;2022-12-22T06:10:19;7.43;;;2.45;;
75854;SDS011;64502;59.976;30.316;2022-12-22T06:12:44;10.00;;;1.67;;
75854;SDS011;64502;59.976;30.316;2022-12-22T06:15:11;8.77;;;3.03;;
75854;SDS011;64502;59.976;30.316;2022-12-22T06:17:38;10.68;;;2.03;;
75854;SDS011;64502;59.976;30.316;2022-12-22T06:20:04;10.27;;;1.73;;
75854;SDS011;64502;59.976;30.316;2022-12-22T06:22:31;8.10;;;2.28;;
75854;SDS011;64502;59.976;30.316;2022-12-22T06:24:57;12.68;;;1.85;;
75854;SDS011;64502;59.976;30.316;2022-12-22T06:27:23;8.80;;;2.58;;
75854;SDS011;64502;59.976;30.316;2022-12-22T06:29:48;9.05;;;2.13;;
75854;SDS011;64502;59.976;30.316;2022-12-22T06:32:14;11.50;;;1.63;;
75854;SDS011;64502;59.976;30.316;2022-12-22T06:34:39;13.10;;;2.90;;
75854;SDS011;64502;59.976;30.316;2022-12-22T06:37:05;13.55;;;2.03;;
75854;SDS011;64502;59.976;30.316;2022-12-22T06:39:30;11.30;;;1.70;;
75854;SDS011;64502;59.976;30.316;2022-12-22T06:41:56;4.53;;;1.05;;
75854;SDS011;64502;59.976;30.316;2022-12-22T06:44:39;9.13;;;2.10;;
75854;SDS011;64502;59.976;30.316;2022-12-22T06:47:05;7.22;;;1.65;;
75854;SDS011;64502;59.976;30.316;2022-12-22T06:49:30;8.80;;;1.52;;
75854;SDS011;64502;59.976;30.316;2022-12-22T06:51:56;11.75;;;1.63;;
75854;SDS011;64502;59.976;30.316;2022-12-22T06:54:21;12.95;;;1.90;;
75854;SDS011;64502;59.976;30.316;2022-12-22T06:56:47;9.10;;;2.47;;
75854;SDS011;64502;59.976;30.316;2022-12-22T06:59:12;9.00;;;2.08;;
75854;SDS011;64502;59.976;30.316;2022-12-22T07:01:38;9.80;;;1.67;;
75854;SDS011;64502;59.976;30.316;2022-12-22T07:04:04;8.45;;;1.80;;
75854;SDS011;64502;59.976;30.316;2022-12-22T07:06:29;8.10;;;2.17;;
75854;SDS011;64502;59.976;30.316;2022-12-22T07:08:55;10.95;;;2.33;;
75854;SDS011;64502;59.976;30.316;2022-12-22T07:11:20;8.90;;;1.60;;
75854;SDS011;64502;59.976;30.316;2022-12-22T07:13:47;7.63;;;2.08;;
75854;SDS011;64502;59.976;30.316;2022-12-22T07:16:12;7.45;;;1.85;;
75854;SDS011;64502;59.976;30.316;2022-12-22T07:18:40;8.27;;;1.60;;
75854;SDS011;64502;59.976;30.316;2022-12-22T07:21:08;6.05;;;1.40;;
75854;SDS011;64502;59.976;30.316;2022-12-22T07:23:35;8.15;;;1.08;;
75854;SDS011;64502;59.976;30.316;2022-12-22T07:26:01;6.57;;;1.45;;
75854;SDS011;64502;59.976;30.316;2022-12-22T07:28:27;7.07;;;1.40;;
75854;SDS011;64502;59.976;30.316;2022-12-22T07:30:52;12.55;;;1.98;;
75854;SDS011;64502;59.976;30.316;2022-12-22T07:33:19;6.20;;;1.20;;
75854;SDS011;64502;59.976;30.316;2022-12-22T07:35:45;7.28;;;1.42;;
75854;SDS011;64502;59.976;30.316;2022-12-22T07:38:11;10.52;;;1.42;;
75854;SDS011;64502;59.976;30.316;2022-12-22T07:40:36;3.80;;;1.35;;
75854;SDS011;64502;59.976;30.316;2022-12-22T07:43:02;12.57;;;1.52;;
75854;SDS011;64502;59.976;30.316;2022-12-22T07:45:27;8.32;;;1.27;;
75854;SDS011;64502;59.976;30.316;2022-12-22T07:48:00;8.00;;;1.85;;
75854;SDS011;64502;59.976;30.316;2022-12-22T07:50:26;6.20;;;1.20;;
75854;SDS011;64502;59.976;30.316;2022-12-22T07:52:53;6.97;;;1.08;;
75854;SDS011;64502;59.976;30.316;2022-12-22T07:55:20;7.40;;;1.05;;
75854;SDS011;64502;59.976;30.316;2022-12-22T07:57:46;6.85;;;1.40;;
75854;SDS011;64502;59.976;30.316;2022-12-22T08:00:12;7.97;;;1.77;;
75854;SDS011;64502;59.976;30.316;2022-12-22T08:02:38;6.25;;;1.27;;
75854;SDS011;64502;59.976;30.316;2022-12-22T08:05:04;9.50;;;1.50;;
75854;SDS011;64502;59.976;30.316;2022-12-22T08:07:29;7.47;;;1.13;;
75854;SDS011;64502;59.976;30.316;2022-12-22T08:09:56;20.67;;;1.65;;
75854;SDS011;64502;59.976;30.316;2022-12-22T08:12:22;8.55;;;1.50;;
75854;SDS011;64502;59.976;30.316;2022-12-22T08:14:49;7.40;;;1.25;;
75854;SDS011;64502;59.976;30.316;2022-12-22T08:17:14;9.77;;;1.77;;
75854;SDS011;64502;59.976;30.316;2022-12-22T08:19:40;11.77;;;2.17;;
75854;SDS011;64502;59.976;30.316;2022-12-22T08:22:05;6.47;;;1.20;;
75854;SDS011;64502;59.976;30.316;2022-12-22T08:24:31;7.03;;;1.05;;
75854;SDS011;64502;59.976;30.316;2022-12-22T08:26:57;13.90;;;1.52;;
75854;SDS011;64502;59.976;30.316;2022-12-22T08:29:37;9.38;;;1.88;;
75854;SDS011;64502;59.976;30.316;2022-12-22T08:32:07;9.38;;;1.85;;
75854;SDS011;64502;59.976;30.316;2022-12-22T08:34:34;8.70;;;1.90;;
75854;SDS011;64502;59.976;30.316;2022-12-22T08:37:00;5.57;;;1.33;;
75854;SDS011;64502;59.976;30.316;2022-12-22T08:39:30;8.25;;;1.48;;
75854;SDS011;64502;59.976;30.316;2022-12-22T08:44:26;6.80;;;1.40;;
75854;SDS011;64502;59.976;30.316;2022-12-22T08:46:54;5.55;;;1.20;;
75854;SDS011;64502;59.976;30.316;2022-12-22T08:49:21;7.63;;;1.30;;
75854;SDS011;64502;59.976;30.316;2022-12-22T08:51:48;9.52;;;1.33;;
75854;SDS011;64502;59.976;30.316;2022-12-22T08:54:15;6.90;;;1.67;;
75854;SDS011;64502;59.976;30.316;2022-12-22T08:56:41;9.32;;;1.33;;
75854;SDS011;64502;59.976;30.316;2022-12-22T08:59:07;10.65;;;1.65;;
75854;SDS011;64502;59.976;30.316;2022-12-22T09:01:37;6.28;;;1.48;;
75854;SDS011;64502;59.976;30.316;2022-12-22T09:04:06;5.40;;;1.38;;
75854;SDS011;64502;59.976;30.316;2022-12-22T09:06:32;13.18;;;2.70;;
75854;SDS011;64502;59.976;30.316;2022-12-22T09:08:59;8.75;;;1.83;;
75854;SDS011;64502;59.976;30.316;2022-12-22T09:11:26;6.60;;;1.77;;
75854;SDS011;64502;59.976;30.316;2022-12-22T09:13:55;8.80;;;1.67;;
75854;SDS011;64502;59.976;30.316;2022-12-22T09:16:22;10.38;;;1.77;;
75854;SDS011;64502;59.976;30.316;2022-12-22T09:18:49;8.05;;;2.08;;
75854;SDS011;64502;59.976;30.316;2022-12-22T09:21:15;6.20;;;1.98;;
75854;SDS011;64502;59.976;30.316;2022-12-22T09:23:41;9.23;;;2.00;;
75854;SDS011;64502;59.976;30.316;2022-12-22T09:26:11;7.18;;;1.95;;
75854;SDS011;64502;59.976;30.316;2022-12-22T09:28:38;7.35;;;1.85;;
75854;SDS011;64502;59.976;30.316;2022-12-22T09:31:04;8.27;;;2.83;;
75854;SDS011;64502;59.976;30.316;2022-12-22T09:33:31;8.25;;;2.40;;
75854;SDS011;64502;59.976;30.316;2022-12-22T09:35:57;10.63;;;2.03;;
75854;SDS011;64502;59.976;30.316;2022-12-22T09:38:26;9.07;;;1.85;;
75854;SDS011;64502;59.976;30.316;2022-12-22T09:40:54;10.95;;;2.00;;
75854;SDS011;64502;59.976;30.316;2022-12-22T09:43:23;9.00;;;1.60;;
75854;SDS011;64502;59.976;30.316;2022-12-22T09:45:52;12.00;;;2.53;;
75854;SDS011;64502;59.976;30.316;2022-12-22T09:48:18;17.90;;;2.75;;
75854;SDS011;64502;59.976;30.316;2022-12-22T09:50:44;14.77;;;2.05;;
75854;SDS011;64502;59.976;30.316;2022-12-22T09:53:20;12.20;;;1.90;;
75854;SDS011;64502;59.976;30.316;2022-12-22T09:55:47;12.90;;;2.72;;
75854;SDS011;64502;59.976;30.316;2022-12-22T09:58:22;6.60;;;1.15;;
75854;SDS011;64502;59.976;30.316;2022-12-22T10:06:46;8.18;;;1.83;;
75854;SDS011;64502;59.976;30.316;2022-12-22T10:09:24;6.80;;;1.63;;
75854;SDS011;64502;59.976;30.316;2022-12-22T10:11:52;9.45;;;2.28;;
75854;SDS011;64502;59.976;30.316;2022-12-22T10:14:20;8.27;;;1.35;;
75854;SDS011;64502;59.976;30.316;2022-12-22T10:16:49;10.32;;;1.50;;
75854;SDS011;64502;59.976;30.316;2022-12-22T10:22:45;7.68;;;1.58;;
75854;SDS011;64502;59.976;30.316;2022-12-22T10:25:26;5.47;;;1.50;;
75854;SDS011;64502;59.976;30.316;2022-12-22T10:27:53;10.02;;;1.67;;
75854;SDS011;64502;59.976;30.316;2022-12-22T10:38:15;11.35;;;2.50;;
75854;SDS011;64502;59.976;30.316;2022-12-22T10:40:56;12.18;;;2.15;;
75854;SDS011;64502;59.976;30.316;2022-12-22T10:43:27;7.97;;;1.67;;
75854;SDS011;64502;59.976;30.316;2022-12-22T10:45:58;8.90;;;2.25;;
75854;SDS011;64502;59.976;30.316;2022-12-22T10:48:36;7.68;;;2.08;;
75854;SDS011;64502;59.976;30.316;2022-12-22T10:51:06;5.70;;;2.17;;
75854;SDS011;64502;59.976;30.316;2022-12-22T10:53:41;6.95;;;2.10;;
75854;SDS011;64502;59.976;30.316;2022-12-22T10:56:32;7.35;;;1.60;;
75854;SDS011;64502;59.976;30.316;2022-12-22T11:01:41;9.25;;;2.03;;
75854;SDS011;64502;59.976;30.316;2022-12-22T11:04:23;7.65;;;2.10;;
75854;SDS011;64502;59.976;30.316;2022-12-22T11:06:52;5.75;;;1.83;;
75854;SDS011;64502;59.976;30.316;2022-12-22T11:09:19;8.90;;;3.00;;
75854;SDS011;64502;59.976;30.316;2022-12-22T11:11:55;13.00;;;2.95;;
75854;SDS011;64502;59.976;30.316;2022-12-22T11:14:32;8.50;;;2.33;;
75854;SDS011;64502;59.976;30.316;2022-12-22T11:20:08;8.90;;;2.85;;
75854;SDS011;64502;59.976;30.316;2022-12-22T11:23:08;12.77;;;4.30;;
75854;SDS011;64502;59.976;30.316;2022-12-22T11:26:01;13.32;;;3.78;;
75854;SDS011;64502;59.976;30.316;2022-12-22T11:43:34;9.75;;;3.88;;
75854;SDS011;64502;59.976;30.316;2022-12-22T11:58:00;10.88;;;3.85;;
75854;SDS011;64502;59.976;30.316;2022-12-22T12:00:47;13.98;;;4.30;;
75854;SDS011;64502;59.976;30.316;2022-12-22T12:11:56;13.00;;;4.00;;
75854;SDS011;64502;59.976;30.316;2022-12-22T12:18:08;11.30;;;4.03;;
75854;SDS011;64502;59.976;30.316;2022-12-22T12:21:06;15.40;;;4.43;;
75854;SDS011;64502;59.976;30.316;2022-12-22T12:23:47;14.10;;;4.88;;
75854;SDS011;64502;59.976;30.316;2022-12-22T12:26:31;7.53;;;2.20;;
75854;SDS011;64502;59.976;30.316;2022-12-22T12:31:37;10.70;;;3.95;;
75854;SDS011;64502;59.976;30.316;2022-12-22T12:34:09;8.68;;;3.90;;
75854;SDS011;64502;59.976;30.316;2022-12-22T12:41:41;8.02;;;2.92;;
75854;SDS011;64502;59.976;30.316;2022-12-22T12:44:25;8.60;;;3.70;;
75854;SDS011;64502;59.976;30.316;2022-12-22T12:47:05;10.45;;;2.65;;
75854;SDS011;64502;59.976;30.316;2022-12-22T12:57:48;10.13;;;2.70;;
75854;SDS011;64502;59.976;30.316;2022-12-22T13:03:01;10.40;;;4.00;;
75854;SDS011;64502;59.976;30.316;2022-12-22T13:08:16;7.68;;;4.03;;
75854;SDS011;64502;59.976;30.316;2022-12-22T13:10:46;12.13;;;4.45;;
75854;SDS011;64502;59.976;30.316;2022-12-22T13:16:19;11.85;;;4.00;;
75854;SDS011;64502;59.976;30.316;2022-12-22T13:21:00;10.33;;;4.50;;
75854;SDS011;64502;59.976;30.316;2022-12-22T13:23:36;10.63;;;3.20;;
75854;SDS011;64502;59.976;30.316;2022-12-22T13:26:08;9.50;;;3.13;;
75854;SDS011;64502;59.976;30.316;2022-12-22T13:28:39;10.23;;;3.45;;
75854;SDS011;64502;59.976;30.316;2022-12-22T13:33:42;7.18;;;3.00;;
75854;SDS011;64502;59.976;30.316;2022-12-22T13:36:15;5.97;;;2.47;;
75854;SDS011;64502;59.976;30.316;2022-12-22T13:38:43;7.07;;;1.95;;
75854;SDS011;64502;59.976;30.316;2022-12-22T13:41:14;9.60;;;2.90;;
75854;SDS011;64502;59.976;30.316;2022-12-22T13:43:42;7.00;;;2.28;;
75854;SDS011;64502;59.976;30.316;2022-12-22T13:46:11;8.18;;;2.03;;
75854;SDS011;64502;59.976;30.316;2022-12-22T13:48:38;10.18;;;2.72;;
75854;SDS011;64502;59.976;30.316;2022-12-22T13:51:07;8.38;;;2.10;;
75854;SDS011;64502;59.976;30.316;2022-12-22T13:53:41;6.78;;;2.65;;
75854;SDS011;64502;59.976;30.316;2022-12-22T13:56:12;5.95;;;2.55;;
75854;SDS011;64502;59.976;30.316;2022-12-22T13:58:40;9.38;;;3.17;;
75854;SDS011;64502;59.976;30.316;2022-12-22T14:03:35;8.20;;;2.95;;
75854;SDS011;64502;59.976;30.316;2022-12-22T14:06:01;9.18;;;2.85;;
75854;SDS011;64502;59.976;30.316;2022-12-22T14:08:27;8.38;;;2.35;;
75854;SDS011;64502;59.976;30.316;2022-12-22T14:10:52;6.15;;;2.45;;
75854;SDS011;64502;59.976;30.316;2022-12-22T14:13:21;10.00;;;2.72;;
75854;SDS011;64502;59.976;30.316;2022-12-22T14:15:59;6.80;;;2.03;;
75854;SDS011;64502;59.976;30.316;2022-12-22T14:18:26;7.57;;;3.22;;
75854;SDS011;64502;59.976;30.316;2022-12-22T14:20:52;7.45;;;2.63;;
75854;SDS011;64502;59.976;30.316;2022-12-22T14:23:26;6.05;;;1.90;;
75854;SDS011;64502;59.976;30.316;2022-12-22T14:25:55;12.95;;;3.33;;
75854;SDS011;64502;59.976;30.316;2022-12-22T14:28:26;9.27;;;2.40;;
75854;SDS011;64502;59.976;30.316;2022-12-22T14:30:57;9.77;;;2.38;;
75854;SDS011;64502;59.976;30.316;2022-12-22T14:38:40;7.00;;;2.42;;
75854;SDS011;64502;59.976;30.316;2022-12-22T14:41:46;4.82;;;2.60;;
75854;SDS011;64502;59.976;30.316;2022-12-22T14:44:17;7.35;;;2.63;;
75854;SDS011;64502;59.976;30.316;2022-12-22T14:47:04;6.05;;;1.77;;
75854;SDS011;64502;59.976;30.316;2022-12-22T14:49:30;8.52;;;2.05;;
75854;SDS011;64502;59.976;30.316;2022-12-22T14:51:58;8.93;;;1.95;;
75854;SDS011;64502;59.976;30.316;2022-12-22T14:54:30;16.02;;;4.07;;
75854;SDS011;64502;59.976;30.316;2022-12-22T14:56:58;7.60;;;1.98;;
75854;SDS011;64502;59.976;30.316;2022-12-22T14:59:28;6.95;;;2.22;;
75854;SDS011;64502;59.976;30.316;2022-12-22T15:04:22;6.80;;;1.90;;
75854;SDS011;64502;59.976;30.316;2022-12-22T15:06:48;10.00;;;2.35;;
75854;SDS011;64502;59.976;30.316;2022-12-22T15:11:41;5.28;;;1.23;;
75854;SDS011;64502;59.976;30.316;2022-12-22T15:14:13;5.00;;;1.00;;
75854;SDS011;64502;59.976;30.316;2022-12-22T15:16:41;5.68;;;1.95;;
75854;SDS011;64502;59.976;30.316;2022-12-22T15:19:09;6.22;;;1.95;;
75854;SDS011;64502;59.976;30.316;2022-12-22T15:21:38;5.78;;;1.77;;
75854;SDS011;64502;59.976;30.316;2022-12-22T15:24:08;4.95;;;1.33;;
75854;SDS011;64502;59.976;30.316;2022-12-22T15:26:36;3.45;;;0.98;;
75854;SDS011;64502;59.976;30.316;2022-12-22T15:29:02;4.30;;;1.27;;
75854;SDS011;64502;59.976;30.316;2022-12-22T15:31:27;2.40;;;0.80;;
75854;SDS011;64502;59.976;30.316;2022-12-22T15:33:53;2.85;;;0.95;;
75854;SDS011;64502;59.976;30.316;2022-12-22T15:36:22;5.07;;;1.02;;
75854;SDS011;64502;59.976;30.316;2022-12-22T15:38:48;6.13;;;1.10;;
75854;SDS011;64502;59.976;30.316;2022-12-22T15:41:15;2.92;;;0.77;;
75854;SDS011;64502;59.976;30.316;2022-12-22T15:43:40;2.03;;;0.85;;
75854;SDS011;64502;59.976;30.316;2022-12-22T15:46:06;3.90;;;0.75;;
75854;SDS011;64502;59.976;30.316;2022-12-22T15:48:35;3.03;;;0.95;;
75854;SDS011;64502;59.976;30.316;2022-12-22T15:51:04;3.35;;;0.70;;
75854;SDS011;64502;59.976;30.316;2022-12-22T15:53:31;2.70;;;0.80;;
75854;SDS011;64502;59.976;30.316;2022-12-22T15:55:58;4.10;;;0.50;;
75854;SDS011;64502;59.976;30.316;2022-12-22T15:58:26;2.95;;;0.55;;
75854;SDS011;64502;59.976;30.316;2022-12-22T16:00:55;2.70;;;0.47;;
75854;SDS011;64502;59.976;30.316;2022-12-22T16:03:20;2.05;;;0.40;;
75854;SDS011;64502;59.976;30.316;2022-12-22T16:05:46;2.08;;;0.60;;
75854;SDS011;64502;59.976;30.316;2022-12-22T16:08:11;3.55;;;0.63;;
75854;SDS011;64502;59.976;30.316;2022-12-22T16:10:40;2.45;;;0.73;;
75854;SDS011;64502;59.976;30.316;2022-12-22T16:13:08;2.38;;;0.75;;
75854;SDS011;64502;59.976;30.316;2022-12-22T16:15:38;5.95;;;1.05;;
75854;SDS011;64502;59.976;30.316;2022-12-22T16:18:04;2.72;;;0.80;;
75854;SDS011;64502;59.976;30.316;2022-12-22T16:20:34;3.33;;;1.08;;
75854;SDS011;64502;59.976;30.316;2022-12-22T16:23:02;1.95;;;0.52;;
75854;SDS011;64502;59.976;30.316;2022-12-22T16:25:30;2.30;;;0.52;;
75854;SDS011;64502;59.976;30.316;2022-12-22T16:28:00;4.20;;;1.33;;
75854;SDS011;64502;59.976;30.316;2022-12-22T16:30:27;7.75;;;1.92;;
75854;SDS011;64502;59.976;30.316;2022-12-22T16:32:55;3.10;;;0.77;;
75854;SDS011;64502;59.976;30.316;2022-12-22T16:35:21;4.43;;;0.80;;
75854;SDS011;64502;59.976;30.316;2022-12-22T16:37:49;2.58;;;1.13;;
75854;SDS011;64502;59.976;30.316;2022-12-22T16:40:15;1.80;;;0.43;;
75854;SDS011;64502;59.976;30.316;2022-12-22T16:42:44;3.38;;;0.75;;
75854;SDS011;64502;59.976;30.316;2022-12-22T16:45:24;1.50;;;0.45;;
75854;SDS011;64502;59.976;30.316;2022-12-22T16:47:52;1.70;;;0.43;;
75854;SDS011;64502;59.976;30.316;2022-12-22T16:50:24;2.85;;;0.70;;
75854;SDS011;64502;59.976;30.316;2022-12-22T16:52:56;2.47;;;0.30;;
75854;SDS011;64502;59.976;30.316;2022-12-22T16:55:24;1.73;;;0.40;;
75854;SDS011;64502;59.976;30.316;2022-12-22T16:57:50;2.45;;;0.82;;
75854;SDS011;64502;59.976;30.316;2022-12-22T17:00:16;1.50;;;0.32;;
75854;SDS011;64502;59.976;30.316;2022-12-22T17:02:47;1.75;;;0.47;;
75854;SDS011;64502;59.976;30.316;2022-12-22T17:05:34;3.58;;;0.73;;
75854;SDS011;64502;59.976;30.316;2022-12-22T17:08:00;2.33;;;0.40;;
75854;SDS011;64502;59.976;30.316;2022-12-22T17:10:29;2.30;;;0.68;;
75854;SDS011;64502;59.976;30.316;2022-12-22T17:12:54;1.58;;;0.63;;
75854;SDS011;64502;59.976;30.316;2022-12-22T17:15:21;2.03;;;0.52;;
75854;SDS011;64502;59.976;30.316;2022-12-22T17:17:48;3.10;;;1.27;;